sensor_id;sensor_type;location;lat;lon;timestamp;P1;durP1;ratioP1;P2;durP2;ratioP2
71351;SDS011;59159;51.652;4.864;2024-01-10T00:00:06;4.03;;;1.30;;
71351;SDS011;59159;51.652;4.864;2024-01-10T00:02:33;5.40;;;1.40;;
71351;SDS011;59159;51.652;4.864;2024-01-10T00:04:59;4.43;;;1.40;;
71351;SDS011;59159;51.652;4.864;2024-01-10T00:07:25;5.20;;;1.35;;
71351;SDS011;59159;51.652;4.864;2024-01-10T00:09:51;3.83;;;1.20;;
71351;SDS011;59159;51.652;4.864;2024-01-10T00:12:17;4.82;;;1.40;;
71351;SDS011;59159;51.652;4.864;2024-01-10T00:14:43;5.20;;;1.58;;
71351;SDS011;59159;51.652;4.864;2024-01-10T00:17:10;5.57;;;1.10;;
71351;SDS011;59159;51.652;4.864;2024-01-10T00:19:36;4.70;;;1.30;;
71351;SDS011;59159;51.652;4.864;2024-01-10T00:22:03;5.10;;;1.45;;
71351;SDS011;59159;51.652;4.864;2024-01-10T00:24:30;5.03;;;1.30;;
71351;SDS011;59159;51.652;4.864;2024-01-10T00:26:56;4.03;;;1.10;;
71351;SDS011;59159;51.652;4.864;2024-01-10T00:29:22;4.90;;;1.40;;
71351;SDS011;59159;51.652;4.864;2024-01-10T00:31:48;5.07;;;1.67;;
71351;SDS011;59159;51.652;4.864;2024-01-10T00:34:16;4.63;;;1.50;;
71351;SDS011;59159;51.652;4.864;2024-01-10T00:36:42;4.63;;;1.20;;
71351;SDS011;59159;51.652;4.864;2024-01-10T00:39:08;4.75;;;1.25;;
71351;SDS011;59159;51.652;4.864;2024-01-10T00:41:34;4.47;;;1.50;;
71351;SDS011;59159;51.652;4.864;2024-01-10T00:44:00;4.88;;;1.58;;
71351;SDS011;59159;51.652;4.864;2024-01-10T00:46:26;4.70;;;1.58;;
71351;SDS011;59159;51.652;4.864;2024-01-10T00:48:52;4.30;;;1.42;;
71351;SDS011;59159;51.652;4.864;2024-01-10T00:51:18;5.03;;;1.70;;
71351;SDS011;59159;51.652;4.864;2024-01-10T00:53:44;5.30;;;1.63;;
71351;SDS011;59159;51.652;4.864;2024-01-10T00:56:09;4.57;;;1.48;;
71351;SDS011;59159;51.652;4.864;2024-01-10T00:58:36;4.97;;;1.13;;
71351;SDS011;59159;51.652;4.864;2024-01-10T01:01:02;4.65;;;1.30;;
71351;SDS011;59159;51.652;4.864;2024-01-10T01:03:28;4.72;;;1.50;;
71351;SDS011;59159;51.652;4.864;2024-01-10T01:05:54;5.77;;;1.53;;
71351;SDS011;59159;51.652;4.864;2024-01-10T01:08:20;3.30;;;1.35;;
71351;SDS011;59159;51.652;4.864;2024-01-10T01:10:46;4.05;;;1.65;;
71351;SDS011;59159;51.652;4.864;2024-01-10T01:13:12;4.70;;;1.40;;
71351;SDS011;59159;51.652;4.864;2024-01-10T01:15:38;5.33;;;1.60;;
71351;SDS011;59159;51.652;4.864;2024-01-10T01:18:04;4.22;;;1.40;;
71351;SDS011;59159;51.652;4.864;2024-01-10T01:20:31;4.30;;;1.30;;
71351;SDS011;59159;51.652;4.864;2024-01-10T01:22:57;4.00;;;1.30;;
71351;SDS011;59159;51.652;4.864;2024-01-10T01:25:23;4.68;;;1.48;;
71351;SDS011;59159;51.652;4.864;2024-01-10T01:27:49;5.00;;;1.38;;
71351;SDS011;59159;51.652;4.864;2024-01-10T01:30:15;5.47;;;1.40;;
71351;SDS011;59159;51.652;4.864;2024-01-10T01:32:41;7.63;;;1.75;;
71351;SDS011;59159;51.652;4.864;2024-01-10T01:35:07;4.35;;;1.20;;
71351;SDS011;59159;51.652;4.864;2024-01-10T01:37:33;5.93;;;1.50;;
71351;SDS011;59159;51.652;4.864;2024-01-10T01:39:59;4.23;;;1.27;;
71351;SDS011;59159;51.652;4.864;2024-01-10T01:42:25;4.95;;;1.60;;
71351;SDS011;59159;51.652;4.864;2024-01-10T01:44:51;4.38;;;1.17;;
71351;SDS011;59159;51.652;4.864;2024-01-10T01:47:17;4.67;;;1.40;;
71351;SDS011;59159;51.652;4.864;2024-01-10T01:49:43;4.28;;;1.20;;
71351;SDS011;59159;51.652;4.864;2024-01-10T01:52:10;5.15;;;1.33;;
71351;SDS011;59159;51.652;4.864;2024-01-10T01:54:36;4.27;;;1.43;;
71351;SDS011;59159;51.652;4.864;2024-01-10T01:57:02;4.53;;;1.35;;
71351;SDS011;59159;51.652;4.864;2024-01-10T01:59:28;5.63;;;1.60;;
71351;SDS011;59159;51.652;4.864;2024-01-10T02:01:54;4.93;;;1.45;;
71351;SDS011;59159;51.652;4.864;2024-01-10T02:04:23;5.67;;;1.40;;
71351;SDS011;59159;51.652;4.864;2024-01-10T02:06:49;4.95;;;1.30;;
71351;SDS011;59159;51.652;4.864;2024-01-10T02:09:16;4.07;;;1.30;;
71351;SDS011;59159;51.652;4.864;2024-01-10T02:11:42;4.57;;;1.33;;
71351;SDS011;59159;51.652;4.864;2024-01-10T02:14:08;5.28;;;1.80;;
71351;SDS011;59159;51.652;4.864;2024-01-10T02:16:35;4.05;;;1.20;;
71351;SDS011;59159;51.652;4.864;2024-01-10T02:19:01;5.10;;;1.63;;
71351;SDS011;59159;51.652;4.864;2024-01-10T02:21:27;3.88;;;1.17;;
71351;SDS011;59159;51.652;4.864;2024-01-10T02:23:53;4.43;;;1.20;;
71351;SDS011;59159;51.652;4.864;2024-01-10T02:26:18;5.32;;;1.58;;
71351;SDS011;59159;51.652;4.864;2024-01-10T02:28:44;5.23;;;1.40;;
71351;SDS011;59159;51.652;4.864;2024-01-10T02:31:10;4.20;;;1.30;;
71351;SDS011;59159;51.652;4.864;2024-01-10T02:33:36;4.63;;;1.00;;
71351;SDS011;59159;51.652;4.864;2024-01-10T02:36:03;4.47;;;1.30;;
71351;SDS011;59159;51.652;4.864;2024-01-10T02:38:29;5.90;;;1.50;;
71351;SDS011;59159;51.652;4.864;2024-01-10T02:40:55;4.50;;;1.60;;
71351;SDS011;59159;51.652;4.864;2024-01-10T02:43:21;4.60;;;1.30;;
71351;SDS011;59159;51.652;4.864;2024-01-10T02:45:47;4.68;;;1.17;;
71351;SDS011;59159;51.652;4.864;2024-01-10T02:48:13;4.75;;;1.35;;
71351;SDS011;59159;51.652;4.864;2024-01-10T02:50:39;3.78;;;1.17;;
71351;SDS011;59159;51.652;4.864;2024-01-10T02:53:05;3.53;;;1.20;;
71351;SDS011;59159;51.652;4.864;2024-01-10T02:55:31;4.05;;;1.20;;
71351;SDS011;59159;51.652;4.864;2024-01-10T02:57:57;3.45;;;1.00;;
71351;SDS011;59159;51.652;4.864;2024-01-10T03:00:23;4.60;;;1.57;;
71351;SDS011;59159;51.652;4.864;2024-01-10T03:02:49;4.60;;;1.42;;
71351;SDS011;59159;51.652;4.864;2024-01-10T03:05:15;4.13;;;1.35;;
71351;SDS011;59159;51.652;4.864;2024-01-10T03:07:41;4.87;;;1.50;;
71351;SDS011;59159;51.652;4.864;2024-01-10T03:10:07;5.15;;;1.40;;
71351;SDS011;59159;51.652;4.864;2024-01-10T03:12:33;4.53;;;1.27;;
71351;SDS011;59159;51.652;4.864;2024-01-10T03:15:03;4.35;;;1.20;;
71351;SDS011;59159;51.652;4.864;2024-01-10T03:17:29;4.17;;;1.20;;
71351;SDS011;59159;51.652;4.864;2024-01-10T03:19:55;4.43;;;1.30;;
71351;SDS011;59159;51.652;4.864;2024-01-10T03:22:21;4.43;;;1.25;;
71351;SDS011;59159;51.652;4.864;2024-01-10T03:24:47;4.13;;;1.13;;
71351;SDS011;59159;51.652;4.864;2024-01-10T03:27:13;4.78;;;1.00;;
71351;SDS011;59159;51.652;4.864;2024-01-10T03:29:39;4.60;;;1.40;;
71351;SDS011;59159;51.652;4.864;2024-01-10T03:32:05;4.40;;;1.50;;
71351;SDS011;59159;51.652;4.864;2024-01-10T03:34:31;4.30;;;1.20;;
71351;SDS011;59159;51.652;4.864;2024-01-10T03:36:57;5.55;;;1.38;;
71351;SDS011;59159;51.652;4.864;2024-01-10T03:39:23;4.80;;;1.52;;
71351;SDS011;59159;51.652;4.864;2024-01-10T03:41:49;4.60;;;1.43;;
71351;SDS011;59159;51.652;4.864;2024-01-10T03:44:15;4.53;;;1.52;;
71351;SDS011;59159;51.652;4.864;2024-01-10T03:46:41;4.50;;;1.23;;
71351;SDS011;59159;51.652;4.864;2024-01-10T03:49:09;4.57;;;1.17;;
71351;SDS011;59159;51.652;4.864;2024-01-10T03:51:35;4.45;;;1.30;;
71351;SDS011;59159;51.652;4.864;2024-01-10T03:54:01;4.85;;;1.10;;
71351;SDS011;59159;51.652;4.864;2024-01-10T03:56:27;3.67;;;0.90;;
71351;SDS011;59159;51.652;4.864;2024-01-10T03:58:53;3.88;;;1.10;;
71351;SDS011;59159;51.652;4.864;2024-01-10T04:01:21;4.78;;;1.20;;
71351;SDS011;59159;51.652;4.864;2024-01-10T04:03:48;3.65;;;1.13;;
71351;SDS011;59159;51.652;4.864;2024-01-10T04:06:14;4.23;;;1.20;;
71351;SDS011;59159;51.652;4.864;2024-01-10T04:08:40;4.95;;;1.38;;
71351;SDS011;59159;51.652;4.864;2024-01-10T04:11:06;4.35;;;1.33;;
71351;SDS011;59159;51.652;4.864;2024-01-10T04:13:34;4.30;;;1.20;;
71351;SDS011;59159;51.652;4.864;2024-01-10T04:16:00;4.43;;;1.30;;
71351;SDS011;59159;51.652;4.864;2024-01-10T04:18:26;5.15;;;1.25;;
71351;SDS011;59159;51.652;4.864;2024-01-10T04:20:52;3.77;;;1.00;;
71351;SDS011;59159;51.652;4.864;2024-01-10T04:23:17;3.97;;;1.30;;
71351;SDS011;59159;51.652;4.864;2024-01-10T04:25:43;3.47;;;1.10;;
71351;SDS011;59159;51.652;4.864;2024-01-10T04:28:09;4.85;;;1.50;;
71351;SDS011;59159;51.652;4.864;2024-01-10T04:30:35;5.67;;;1.30;;
71351;SDS011;59159;51.652;4.864;2024-01-10T04:33:01;4.00;;;1.25;;
71351;SDS011;59159;51.652;4.864;2024-01-10T04:35:27;4.55;;;1.30;;
71351;SDS011;59159;51.652;4.864;2024-01-10T04:37:53;3.90;;;1.10;;
71351;SDS011;59159;51.652;4.864;2024-01-10T04:40:19;5.28;;;1.23;;
71351;SDS011;59159;51.652;4.864;2024-01-10T04:42:45;4.25;;;1.27;;
71351;SDS011;59159;51.652;4.864;2024-01-10T04:45:11;3.97;;;1.40;;
71351;SDS011;59159;51.652;4.864;2024-01-10T04:47:38;4.47;;;1.40;;
71351;SDS011;59159;51.652;4.864;2024-01-10T04:50:04;3.50;;;1.10;;
71351;SDS011;59159;51.652;4.864;2024-01-10T04:52:30;5.03;;;1.48;;
71351;SDS011;59159;51.652;4.864;2024-01-10T04:54:56;4.70;;;1.30;;
71351;SDS011;59159;51.652;4.864;2024-01-10T04:57:22;3.88;;;1.20;;
71351;SDS011;59159;51.652;4.864;2024-01-10T04:59:48;4.65;;;1.30;;
71351;SDS011;59159;51.652;4.864;2024-01-10T05:02:14;3.93;;;1.10;;
71351;SDS011;59159;51.652;4.864;2024-01-10T05:04:40;4.90;;;1.42;;
71351;SDS011;59159;51.652;4.864;2024-01-10T05:07:06;4.32;;;1.10;;
71351;SDS011;59159;51.652;4.864;2024-01-10T05:09:32;4.80;;;1.37;;
71351;SDS011;59159;51.652;4.864;2024-01-10T05:11:58;5.07;;;1.35;;
71351;SDS011;59159;51.652;4.864;2024-01-10T05:14:24;3.42;;;1.02;;
71351;SDS011;59159;51.652;4.864;2024-01-10T05:16:50;4.60;;;1.52;;
71351;SDS011;59159;51.652;4.864;2024-01-10T05:19:18;5.00;;;1.40;;
71351;SDS011;59159;51.652;4.864;2024-01-10T05:21:44;4.70;;;1.35;;
71351;SDS011;59159;51.652;4.864;2024-01-10T05:24:10;4.68;;;1.52;;
71351;SDS011;59159;51.652;4.864;2024-01-10T05:26:37;3.97;;;1.30;;
71351;SDS011;59159;51.652;4.864;2024-01-10T05:29:03;3.88;;;1.20;;
71351;SDS011;59159;51.652;4.864;2024-01-10T05:31:29;4.53;;;1.40;;
71351;SDS011;59159;51.652;4.864;2024-01-10T05:33:55;4.10;;;1.40;;
71351;SDS011;59159;51.652;4.864;2024-01-10T05:36:22;4.07;;;1.27;;
71351;SDS011;59159;51.652;4.864;2024-01-10T05:38:48;4.65;;;1.33;;
71351;SDS011;59159;51.652;4.864;2024-01-10T05:41:14;4.13;;;1.27;;
71351;SDS011;59159;51.652;4.864;2024-01-10T05:43:40;4.70;;;1.27;;
71351;SDS011;59159;51.652;4.864;2024-01-10T05:46:06;5.35;;;1.33;;
71351;SDS011;59159;51.652;4.864;2024-01-10T05:48:34;5.35;;;1.50;;
71351;SDS011;59159;51.652;4.864;2024-01-10T05:51:00;4.17;;;1.13;;
71351;SDS011;59159;51.652;4.864;2024-01-10T05:53:26;4.80;;;1.48;;
71351;SDS011;59159;51.652;4.864;2024-01-10T05:55:52;4.60;;;1.17;;
71351;SDS011;59159;51.652;4.864;2024-01-10T05:58:19;7.57;;;1.53;;
71351;SDS011;59159;51.652;4.864;2024-01-10T06:00:45;3.72;;;1.08;;
71351;SDS011;59159;51.652;4.864;2024-01-10T06:03:11;4.57;;;1.50;;
71351;SDS011;59159;51.652;4.864;2024-01-10T06:05:37;4.10;;;1.30;;
71351;SDS011;59159;51.652;4.864;2024-01-10T06:08:03;5.23;;;1.33;;
71351;SDS011;59159;51.652;4.864;2024-01-10T06:10:30;4.18;;;1.00;;
71351;SDS011;59159;51.652;4.864;2024-01-10T06:12:56;4.75;;;1.30;;
71351;SDS011;59159;51.652;4.864;2024-01-10T06:15:22;5.20;;;1.50;;
71351;SDS011;59159;51.652;4.864;2024-01-10T06:17:48;4.65;;;1.40;;
71351;SDS011;59159;51.652;4.864;2024-01-10T06:20:15;4.22;;;1.30;;
71351;SDS011;59159;51.652;4.864;2024-01-10T06:22:41;5.83;;;1.60;;
71351;SDS011;59159;51.652;4.864;2024-01-10T06:25:07;5.57;;;1.30;;
71351;SDS011;59159;51.652;4.864;2024-01-10T06:27:33;5.07;;;1.80;;
71351;SDS011;59159;51.652;4.864;2024-01-10T06:29:59;5.45;;;1.48;;
71351;SDS011;59159;51.652;4.864;2024-01-10T06:32:25;4.60;;;1.20;;
71351;SDS011;59159;51.652;4.864;2024-01-10T06:34:52;5.80;;;1.80;;
71351;SDS011;59159;51.652;4.864;2024-01-10T06:37:18;5.07;;;1.50;;
71351;SDS011;59159;51.652;4.864;2024-01-10T06:39:44;4.03;;;1.20;;
71351;SDS011;59159;51.652;4.864;2024-01-10T06:42:10;5.07;;;1.52;;
71351;SDS011;59159;51.652;4.864;2024-01-10T06:44:37;5.00;;;1.20;;
71351;SDS011;59159;51.652;4.864;2024-01-10T06:47:03;4.73;;;1.40;;
71351;SDS011;59159;51.652;4.864;2024-01-10T06:49:29;6.22;;;1.60;;
71351;SDS011;59159;51.652;4.864;2024-01-10T06:51:55;3.90;;;1.10;;
71351;SDS011;59159;51.652;4.864;2024-01-10T06:54:21;5.95;;;1.80;;
71351;SDS011;59159;51.652;4.864;2024-01-10T06:56:47;4.57;;;1.23;;
71351;SDS011;59159;51.652;4.864;2024-01-10T06:59:13;5.25;;;1.45;;
71351;SDS011;59159;51.652;4.864;2024-01-10T07:01:39;4.60;;;1.30;;
71351;SDS011;59159;51.652;4.864;2024-01-10T07:04:05;6.40;;;1.40;;
71351;SDS011;59159;51.652;4.864;2024-01-10T07:06:31;5.10;;;1.35;;
71351;SDS011;59159;51.652;4.864;2024-01-10T07:08:57;4.72;;;1.42;;
71351;SDS011;59159;51.652;4.864;2024-01-10T07:11:23;6.17;;;1.47;;
71351;SDS011;59159;51.652;4.864;2024-01-10T07:13:53;4.45;;;1.40;;
71351;SDS011;59159;51.652;4.864;2024-01-10T07:16:19;4.97;;;1.45;;
71351;SDS011;59159;51.652;4.864;2024-01-10T07:18:45;4.63;;;1.70;;
71351;SDS011;59159;51.652;4.864;2024-01-10T07:21:12;5.70;;;1.63;;
71351;SDS011;59159;51.652;4.864;2024-01-10T07:23:38;4.75;;;1.27;;
71351;SDS011;59159;51.652;4.864;2024-01-10T07:26:06;3.63;;;1.20;;
71351;SDS011;59159;51.652;4.864;2024-01-10T07:28:32;4.90;;;1.47;;
71351;SDS011;59159;51.652;4.864;2024-01-10T07:30:58;5.18;;;1.45;;
71351;SDS011;59159;51.652;4.864;2024-01-10T07:33:27;5.57;;;1.60;;
71351;SDS011;59159;51.652;4.864;2024-01-10T07:35:55;5.80;;;1.57;;
71351;SDS011;59159;51.652;4.864;2024-01-10T07:38:21;4.68;;;1.35;;
71351;SDS011;59159;51.652;4.864;2024-01-10T07:40:47;4.20;;;1.63;;
71351;SDS011;59159;51.652;4.864;2024-01-10T07:43:13;6.88;;;1.50;;
71351;SDS011;59159;51.652;4.864;2024-01-10T07:45:39;4.97;;;1.60;;
71351;SDS011;59159;51.652;4.864;2024-01-10T07:48:05;4.50;;;1.30;;
71351;SDS011;59159;51.652;4.864;2024-01-10T07:50:31;5.10;;;1.40;;
71351;SDS011;59159;51.652;4.864;2024-01-10T07:52:57;4.30;;;1.40;;
71351;SDS011;59159;51.652;4.864;2024-01-10T07:55:23;4.47;;;1.42;;
71351;SDS011;59159;51.652;4.864;2024-01-10T07:57:49;6.72;;;1.30;;
71351;SDS011;59159;51.652;4.864;2024-01-10T08:00:16;5.23;;;1.50;;
71351;SDS011;59159;51.652;4.864;2024-01-10T08:02:45;5.07;;;1.60;;
71351;SDS011;59159;51.652;4.864;2024-01-10T08:05:11;5.22;;;1.30;;
71351;SDS011;59159;51.652;4.864;2024-01-10T08:07:38;5.28;;;1.50;;
71351;SDS011;59159;51.652;4.864;2024-01-10T08:10:07;4.57;;;1.37;;
71351;SDS011;59159;51.652;4.864;2024-01-10T08:12:34;4.70;;;1.50;;
71351;SDS011;59159;51.652;4.864;2024-01-10T08:15:00;4.70;;;1.42;;
71351;SDS011;59159;51.652;4.864;2024-01-10T08:17:26;4.80;;;1.50;;
71351;SDS011;59159;51.652;4.864;2024-01-10T08:19:53;5.78;;;1.58;;
71351;SDS011;59159;51.652;4.864;2024-01-10T08:22:19;6.78;;;1.85;;
71351;SDS011;59159;51.652;4.864;2024-01-10T08:24:45;6.03;;;1.40;;
71351;SDS011;59159;51.652;4.864;2024-01-10T08:27:12;6.43;;;1.83;;
71351;SDS011;59159;51.652;4.864;2024-01-10T08:29:38;5.82;;;1.70;;
71351;SDS011;59159;51.652;4.864;2024-01-10T08:32:04;4.95;;;1.65;;
71351;SDS011;59159;51.652;4.864;2024-01-10T08:34:30;5.50;;;1.73;;
71351;SDS011;59159;51.652;4.864;2024-01-10T08:36:57;5.55;;;1.83;;
71351;SDS011;59159;51.652;4.864;2024-01-10T08:39:23;5.10;;;1.55;;
71351;SDS011;59159;51.652;4.864;2024-01-10T08:41:50;5.37;;;1.50;;
71351;SDS011;59159;51.652;4.864;2024-01-10T08:44:17;8.98;;;2.55;;
71351;SDS011;59159;51.652;4.864;2024-01-10T08:46:43;5.65;;;1.83;;
71351;SDS011;59159;51.652;4.864;2024-01-10T08:49:09;6.13;;;1.67;;
71351;SDS011;59159;51.652;4.864;2024-01-10T08:51:35;4.40;;;1.70;;
71351;SDS011;59159;51.652;4.864;2024-01-10T08:54:02;6.18;;;1.95;;
71351;SDS011;59159;51.652;4.864;2024-01-10T08:56:28;5.82;;;1.80;;
71351;SDS011;59159;51.652;4.864;2024-01-10T08:58:54;5.53;;;1.90;;
71351;SDS011;59159;51.652;4.864;2024-01-10T09:01:20;4.75;;;1.52;;
71351;SDS011;59159;51.652;4.864;2024-01-10T09:03:47;7.30;;;1.88;;
71351;SDS011;59159;51.652;4.864;2024-01-10T09:06:13;4.97;;;1.70;;
71351;SDS011;59159;51.652;4.864;2024-01-10T09:08:39;5.18;;;1.80;;
71351;SDS011;59159;51.652;4.864;2024-01-10T09:11:05;5.40;;;1.55;;
71351;SDS011;59159;51.652;4.864;2024-01-10T09:13:31;6.30;;;1.37;;
71351;SDS011;59159;51.652;4.864;2024-01-10T09:15:58;5.68;;;1.35;;
71351;SDS011;59159;51.652;4.864;2024-01-10T09:18:24;6.43;;;1.58;;
71351;SDS011;59159;51.652;4.864;2024-01-10T09:20:50;4.65;;;1.60;;
71351;SDS011;59159;51.652;4.864;2024-01-10T09:23:16;5.13;;;1.60;;
71351;SDS011;59159;51.652;4.864;2024-01-10T09:25:45;5.68;;;2.08;;
71351;SDS011;59159;51.652;4.864;2024-01-10T09:28:11;5.35;;;1.42;;
71351;SDS011;59159;51.652;4.864;2024-01-10T09:30:37;6.33;;;1.87;;
71351;SDS011;59159;51.652;4.864;2024-01-10T09:33:04;5.40;;;1.70;;
71351;SDS011;59159;51.652;4.864;2024-01-10T09:35:30;4.78;;;1.70;;
71351;SDS011;59159;51.652;4.864;2024-01-10T09:37:56;6.63;;;1.50;;
71351;SDS011;59159;51.652;4.864;2024-01-10T09:40:22;6.10;;;1.90;;
71351;SDS011;59159;51.652;4.864;2024-01-10T09:42:52;6.03;;;1.63;;
71351;SDS011;59159;51.652;4.864;2024-01-10T09:45:22;5.53;;;1.85;;
71351;SDS011;59159;51.652;4.864;2024-01-10T09:47:52;5.77;;;1.73;;
71351;SDS011;59159;51.652;4.864;2024-01-10T09:50:20;6.75;;;1.90;;
71351;SDS011;59159;51.652;4.864;2024-01-10T09:55:12;5.83;;;1.97;;
71351;SDS011;59159;51.652;4.864;2024-01-10T09:57:39;5.85;;;1.80;;
71351;SDS011;59159;51.652;4.864;2024-01-10T10:00:06;5.10;;;1.60;;
71351;SDS011;59159;51.652;4.864;2024-01-10T10:02:35;5.33;;;1.80;;
71351;SDS011;59159;51.652;4.864;2024-01-10T10:05:07;5.07;;;1.75;;
71351;SDS011;59159;51.652;4.864;2024-01-10T10:07:43;6.57;;;1.98;;
71351;SDS011;59159;51.652;4.864;2024-01-10T10:10:09;5.68;;;1.60;;
71351;SDS011;59159;51.652;4.864;2024-01-10T10:15:13;6.97;;;1.70;;
71351;SDS011;59159;51.652;4.864;2024-01-10T10:17:39;5.15;;;1.45;;
71351;SDS011;59159;51.652;4.864;2024-01-10T10:20:11;5.07;;;1.63;;
71351;SDS011;59159;51.652;4.864;2024-01-10T10:22:38;5.18;;;1.60;;
71351;SDS011;59159;51.652;4.864;2024-01-10T10:25:04;7.45;;;2.05;;
71351;SDS011;59159;51.652;4.864;2024-01-10T10:27:30;5.57;;;1.77;;
71351;SDS011;59159;51.652;4.864;2024-01-10T10:29:57;5.85;;;1.80;;
71351;SDS011;59159;51.652;4.864;2024-01-10T10:32:23;5.47;;;1.65;;
71351;SDS011;59159;51.652;4.864;2024-01-10T10:34:49;6.93;;;1.95;;
71351;SDS011;59159;51.652;4.864;2024-01-10T10:37:15;5.47;;;1.90;;
71351;SDS011;59159;51.652;4.864;2024-01-10T10:39:41;5.35;;;1.85;;
71351;SDS011;59159;51.652;4.864;2024-01-10T10:42:07;5.30;;;1.90;;
71351;SDS011;59159;51.652;4.864;2024-01-10T10:44:33;6.60;;;2.07;;
71351;SDS011;59159;51.652;4.864;2024-01-10T10:47:03;5.68;;;2.20;;
71351;SDS011;59159;51.652;4.864;2024-01-10T10:49:31;6.57;;;2.17;;
71351;SDS011;59159;51.652;4.864;2024-01-10T10:51:57;5.57;;;1.87;;
71351;SDS011;59159;51.652;4.864;2024-01-10T10:54:25;6.18;;;1.95;;
71351;SDS011;59159;51.652;4.864;2024-01-10T10:56:51;5.45;;;1.70;;
71351;SDS011;59159;51.652;4.864;2024-01-10T10:59:17;6.88;;;2.40;;
71351;SDS011;59159;51.652;4.864;2024-01-10T11:01:45;6.70;;;2.27;;
71351;SDS011;59159;51.652;4.864;2024-01-10T11:04:12;6.72;;;2.10;;
71351;SDS011;59159;51.652;4.864;2024-01-10T11:06:39;4.95;;;1.63;;
71351;SDS011;59159;51.652;4.864;2024-01-10T11:09:06;5.43;;;1.77;;
71351;SDS011;59159;51.652;4.864;2024-01-10T11:19:30;5.95;;;1.65;;
71351;SDS011;59159;51.652;4.864;2024-01-10T11:24:47;6.40;;;1.92;;
71351;SDS011;59159;51.652;4.864;2024-01-10T11:27:14;6.67;;;1.87;;
71351;SDS011;59159;51.652;4.864;2024-01-10T11:29:40;6.72;;;1.95;;
71351;SDS011;59159;51.652;4.864;2024-01-10T11:32:07;6.28;;;2.10;;
71351;SDS011;59159;51.652;4.864;2024-01-10T11:34:38;5.70;;;1.70;;
71351;SDS011;59159;51.652;4.864;2024-01-10T11:37:10;6.97;;;2.00;;
71351;SDS011;59159;51.652;4.864;2024-01-10T11:39:37;6.68;;;2.13;;
71351;SDS011;59159;51.652;4.864;2024-01-10T11:42:06;6.30;;;2.00;;
71351;SDS011;59159;51.652;4.864;2024-01-10T11:44:34;6.60;;;2.35;;
71351;SDS011;59159;51.652;4.864;2024-01-10T11:47:01;7.20;;;2.22;;
71351;SDS011;59159;51.652;4.864;2024-01-10T11:49:30;6.18;;;2.15;;
71351;SDS011;59159;51.652;4.864;2024-01-10T11:51:56;8.43;;;2.30;;
71351;SDS011;59159;51.652;4.864;2024-01-10T11:57:01;9.27;;;2.45;;
71351;SDS011;59159;51.652;4.864;2024-01-10T11:59:27;6.50;;;1.97;;
71351;SDS011;59159;51.652;4.864;2024-01-10T12:01:55;6.32;;;1.80;;
71351;SDS011;59159;51.652;4.864;2024-01-10T12:04:21;5.70;;;1.90;;
71351;SDS011;59159;51.652;4.864;2024-01-10T12:06:47;6.80;;;2.20;;
71351;SDS011;59159;51.652;4.864;2024-01-10T12:09:13;6.35;;;2.33;;
71351;SDS011;59159;51.652;4.864;2024-01-10T12:11:40;6.78;;;2.50;;
71351;SDS011;59159;51.652;4.864;2024-01-10T12:14:09;6.00;;;1.92;;
71351;SDS011;59159;51.652;4.864;2024-01-10T12:16:35;6.70;;;2.63;;
71351;SDS011;59159;51.652;4.864;2024-01-10T12:19:01;6.03;;;1.92;;
71351;SDS011;59159;51.652;4.864;2024-01-10T12:21:27;6.15;;;2.30;;
71351;SDS011;59159;51.652;4.864;2024-01-10T12:23:54;7.57;;;3.03;;
71351;SDS011;59159;51.652;4.864;2024-01-10T12:26:20;5.93;;;2.40;;
71351;SDS011;59159;51.652;4.864;2024-01-10T12:28:55;5.85;;;1.98;;
71351;SDS011;59159;51.652;4.864;2024-01-10T12:31:22;6.50;;;2.50;;
71351;SDS011;59159;51.652;4.864;2024-01-10T12:33:48;7.65;;;2.33;;
71351;SDS011;59159;51.652;4.864;2024-01-10T12:36:16;7.22;;;2.40;;
71351;SDS011;59159;51.652;4.864;2024-01-10T12:38:42;7.93;;;2.38;;
71351;SDS011;59159;51.652;4.864;2024-01-10T12:41:09;6.73;;;2.40;;
71351;SDS011;59159;51.652;4.864;2024-01-10T12:43:35;6.72;;;2.03;;
71351;SDS011;59159;51.652;4.864;2024-01-10T12:48:30;6.23;;;2.10;;
71351;SDS011;59159;51.652;4.864;2024-01-10T12:50:58;7.38;;;2.33;;
71351;SDS011;59159;51.652;4.864;2024-01-10T12:53:31;8.05;;;2.60;;
71351;SDS011;59159;51.652;4.864;2024-01-10T12:55:57;6.17;;;1.93;;
71351;SDS011;59159;51.652;4.864;2024-01-10T12:58:23;5.80;;;1.92;;
71351;SDS011;59159;51.652;4.864;2024-01-10T13:00:49;6.75;;;1.90;;
71351;SDS011;59159;51.652;4.864;2024-01-10T13:03:15;5.97;;;2.05;;
71351;SDS011;59159;51.652;4.864;2024-01-10T13:05:43;6.60;;;2.77;;
71351;SDS011;59159;51.652;4.864;2024-01-10T13:08:09;8.38;;;2.60;;
71351;SDS011;59159;51.652;4.864;2024-01-10T13:10:36;6.72;;;2.05;;
71351;SDS011;59159;51.652;4.864;2024-01-10T13:13:02;6.20;;;2.47;;
71351;SDS011;59159;51.652;4.864;2024-01-10T13:15:28;6.05;;;2.13;;
71351;SDS011;59159;51.652;4.864;2024-01-10T13:17:55;5.82;;;1.90;;
71351;SDS011;59159;51.652;4.864;2024-01-10T13:20:22;6.77;;;2.07;;
71351;SDS011;59159;51.652;4.864;2024-01-10T13:22:49;6.20;;;1.73;;
71351;SDS011;59159;51.652;4.864;2024-01-10T13:25:15;6.75;;;2.38;;
71351;SDS011;59159;51.652;4.864;2024-01-10T13:27:41;6.72;;;2.53;;
71351;SDS011;59159;51.652;4.864;2024-01-10T13:30:07;6.33;;;2.50;;
71351;SDS011;59159;51.652;4.864;2024-01-10T13:32:36;6.70;;;2.20;;
71351;SDS011;59159;51.652;4.864;2024-01-10T13:35:03;5.93;;;2.20;;
71351;SDS011;59159;51.652;4.864;2024-01-10T13:37:29;6.17;;;1.97;;
71351;SDS011;59159;51.652;4.864;2024-01-10T13:39:57;6.80;;;2.08;;
71351;SDS011;59159;51.652;4.864;2024-01-10T13:42:23;6.20;;;2.13;;
71351;SDS011;59159;51.652;4.864;2024-01-10T13:44:49;6.63;;;2.40;;
71351;SDS011;59159;51.652;4.864;2024-01-10T13:47:19;6.75;;;2.28;;
71351;SDS011;59159;51.652;4.864;2024-01-10T13:49:46;6.45;;;2.33;;
71351;SDS011;59159;51.652;4.864;2024-01-10T13:52:12;6.90;;;2.50;;
71351;SDS011;59159;51.652;4.864;2024-01-10T13:54:38;6.63;;;2.27;;
71351;SDS011;59159;51.652;4.864;2024-01-10T13:57:04;6.18;;;2.00;;
71351;SDS011;59159;51.652;4.864;2024-01-10T13:59:31;6.28;;;2.40;;
71351;SDS011;59159;51.652;4.864;2024-01-10T14:01:57;6.27;;;2.43;;
71351;SDS011;59159;51.652;4.864;2024-01-10T14:04:25;6.45;;;2.30;;
71351;SDS011;59159;51.652;4.864;2024-01-10T14:06:51;7.10;;;2.53;;
71351;SDS011;59159;51.652;4.864;2024-01-10T14:09:17;6.47;;;2.50;;
71351;SDS011;59159;51.652;4.864;2024-01-10T14:11:43;6.40;;;2.50;;
71351;SDS011;59159;51.652;4.864;2024-01-10T14:14:10;6.70;;;2.42;;
71351;SDS011;59159;51.652;4.864;2024-01-10T14:16:36;6.95;;;2.33;;
71351;SDS011;59159;51.652;4.864;2024-01-10T14:19:02;6.03;;;2.00;;
71351;SDS011;59159;51.652;4.864;2024-01-10T14:21:28;6.43;;;2.63;;
71351;SDS011;59159;51.652;4.864;2024-01-10T14:23:56;6.20;;;2.55;;
71351;SDS011;59159;51.652;4.864;2024-01-10T14:26:23;7.57;;;2.20;;
71351;SDS011;59159;51.652;4.864;2024-01-10T14:28:51;6.18;;;1.90;;
71351;SDS011;59159;51.652;4.864;2024-01-10T14:31:20;6.35;;;1.80;;
71351;SDS011;59159;51.652;4.864;2024-01-10T14:33:46;7.17;;;2.20;;
71351;SDS011;59159;51.652;4.864;2024-01-10T14:36:12;5.72;;;1.80;;
71351;SDS011;59159;51.652;4.864;2024-01-10T14:38:38;6.90;;;2.30;;
71351;SDS011;59159;51.652;4.864;2024-01-10T14:41:05;6.50;;;2.22;;
71351;SDS011;59159;51.652;4.864;2024-01-10T14:43:31;6.53;;;2.23;;
71351;SDS011;59159;51.652;4.864;2024-01-10T14:45:57;7.45;;;2.65;;
71351;SDS011;59159;51.652;4.864;2024-01-10T14:48:23;6.93;;;2.15;;
71351;SDS011;59159;51.652;4.864;2024-01-10T14:50:49;6.27;;;2.30;;
71351;SDS011;59159;51.652;4.864;2024-01-10T14:53:17;6.53;;;2.60;;
71351;SDS011;59159;51.652;4.864;2024-01-10T14:55:43;6.95;;;2.25;;
71351;SDS011;59159;51.652;4.864;2024-01-10T14:58:09;6.50;;;2.23;;
71351;SDS011;59159;51.652;4.864;2024-01-10T15:00:35;6.50;;;2.22;;
71351;SDS011;59159;51.652;4.864;2024-01-10T15:03:01;6.93;;;2.42;;